createdAt,value
2022-10-25T00:01:17.078Z,100798.91
2022-10-25T00:03:43.855Z,100798.09
2022-10-25T00:06:11.863Z,100795.00
2022-10-25T00:08:38.797Z,100798.56
2022-10-25T00:11:07.534Z,100797.75
2022-10-25T00:13:34.475Z,100794.41
2022-10-25T00:16:00.989Z,100799.06
2022-10-25T00:18:27.631Z,100805.50
2022-10-25T00:20:54.476Z,100799.22
2022-10-25T00:23:21.024Z,100810.38
2022-10-25T00:25:47.571Z,100803.50
2022-10-25T00:28:14.072Z,100804.81
2022-10-25T00:30:40.626Z,100802.84
2022-10-25T00:33:07.163Z,100802.84
2022-10-25T00:35:36.377Z,100800.09
2022-10-25T00:38:02.927Z,100803.66
2022-10-25T00:40:29.494Z,100802.84
2022-10-25T00:42:55.982Z,100804.50
2022-10-25T00:45:28.434Z,100811.03
2022-10-25T00:48:10.103Z,100809.97
2022-10-25T00:50:49.818Z,100812.69
2022-10-25T00:53:27.463Z,100806.38
2022-10-25T00:56:19.420Z,100801.25
2022-10-25T00:58:51.706Z,100802.34
2022-10-25T01:01:18.891Z,100801.50
2022-10-25T01:03:49.413Z,100808.38
2022-10-25T01:06:25.384Z,100805.66
2022-10-25T01:08:54.056Z,100804.59
2022-10-25T01:11:20.661Z,100810.63
2022-10-25T01:13:48.878Z,100807.88
2022-10-25T01:16:24.005Z,100813.09
2022-10-25T01:19:21.597Z,100809.56
2022-10-25T01:22:04.700Z,100806.56
2022-10-25T01:25:08.422Z,100818.34
2022-10-25T01:27:53.560Z,100820.22
2022-10-25T01:30:25.933Z,100814.50
2022-10-25T01:32:59.010Z,100815.38
2022-10-25T01:35:51.198Z,100815.38
2022-10-25T01:38:34.843Z,100819.00
2022-10-25T01:41:10.220Z,100819.25
2022-10-25T01:44:00.547Z,100814.63
2022-10-25T01:46:53.379Z,100817.13
2022-10-25T01:49:28.672Z,100815.22
2022-10-25T01:51:55.235Z,100812.22
2022-10-25T01:54:27.701Z,100810.66
2022-10-25T01:57:15.539Z,100815.31
2022-10-25T02:00:07.211Z,100811.00
2022-10-25T02:03:11.368Z,100812.66
2022-10-25T02:06:16.269Z,100819.78
2022-10-25T02:08:56.241Z,100817.63
2022-10-25T02:11:28.493Z,100820.94
2022-10-25T02:14:27.164Z,100824.84
2022-10-25T02:17:07.225Z,100824.84
2022-10-25T02:19:37.687Z,100836.84
2022-10-25T02:22:07.897Z,100840.41
2022-10-25T02:24:35.338Z,100833.78
2022-10-25T02:27:04.766Z,100834.09
2022-10-25T02:29:33.039Z,100832.69
2022-10-25T02:31:59.956Z,100840.31
2022-10-25T02:34:26.464Z,100825.34
2022-10-25T02:36:53.374Z,100829.16
2022-10-25T02:39:22.088Z,100823.78
2022-10-25T02:41:48.645Z,100828.66
2022-10-25T02:44:15.166Z,100829.75
2022-10-25T02:46:42.041Z,100833.53
2022-10-25T02:49:08.709Z,100833.28
2022-10-25T02:51:35.253Z,100837.69
2022-10-25T02:54:01.761Z,100836.63
2022-10-25T02:56:28.360Z,100833.63
2022-10-25T02:58:58.424Z,100831.97
2022-10-25T03:01:26.282Z,100837.44
2022-10-25T03:03:52.842Z,100844.16
2022-10-25T03:06:19.707Z,100837.53
2022-10-25T03:08:46.522Z,100852.00
2022-10-25T03:11:14.294Z,100848.47
2022-10-25T03:13:41.045Z,100854.75
2022-10-25T03:16:08.079Z,100850.13
2022-10-25T03:18:34.601Z,100854.28
2022-10-25T03:21:02.610Z,100860.09
2022-10-25T03:23:29.509Z,100861.16
2022-10-25T03:25:57.919Z,100867.78
2022-10-25T03:28:25.754Z,100868.84
2022-10-25T03:30:52.293Z,100868.94
2022-10-25T03:33:19.421Z,100867.06
2022-10-25T03:35:49.201Z,100865.13
2022-10-25T03:38:15.711Z,100874.03
2022-10-25T03:40:42.618Z,100880.06
2022-10-25T03:43:09.164Z,100880.31
2022-10-25T03:45:35.745Z,100879.78
2022-10-25T03:48:02.240Z,100878.47
2022-10-25T03:50:28.838Z,100880.22
2022-10-25T03:52:55.363Z,100876.69
2022-10-25T03:55:22.323Z,100879.16
2022-10-25T03:57:49.157Z,100879.97
2022-10-25T04:00:16.003Z,100894.84
2022-10-25T04:02:42.517Z,100892.44
2022-10-25T04:05:09.487Z,100891.63
2022-10-25T04:07:35.998Z,100895.19
2022-10-25T04:10:02.668Z,100898.50
2022-10-25T04:12:29.181Z,100889.47
2022-10-25T04:14:55.763Z,100895.50
2022-10-25T04:17:22.322Z,100891.97
2022-10-25T04:19:48.866Z,100907.53
2022-10-25T04:22:15.390Z,100898.50
2022-10-25T04:24:41.909Z,100901.00
2022-10-25T04:27:08.407Z,100902.41
2022-10-25T04:29:34.954Z,100902.66
2022-10-25T04:32:01.450Z,100902.41
2022-10-25T04:34:28.392Z,100901.06
2022-10-25T04:36:54.929Z,100901.91
2022-10-25T04:39:21.542Z,100895.94
2022-10-25T04:41:48.092Z,100898.94
2022-10-25T04:44:14.845Z,100896.44
2022-10-25T04:46:45.066Z,100900.25
2022-10-25T04:49:15.316Z,100892.88
2022-10-25T04:51:42.112Z,100900.25
2022-10-25T04:54:08.838Z,100907.38
2022-10-25T04:56:35.411Z,100901.91
2022-10-25T04:59:01.926Z,100901.91
2022-10-25T05:01:28.583Z,100892.06
2022-10-25T05:03:55.166Z,100888.47
2022-10-25T05:06:25.444Z,100903.56
2022-10-25T05:08:53.240Z,100900.00
2022-10-25T05:11:22.564Z,100894.78
2022-10-25T05:13:49.544Z,100903.34
2022-10-25T05:16:22.099Z,100909.53
2022-10-25T05:18:50.199Z,100917.75
2022-10-25T05:21:18.329Z,100917.47
2022-10-25T05:23:45.812Z,100918.56
2022-10-25T05:26:18.603Z,100921.28
2022-10-25T05:28:47.583Z,100925.94
2022-10-25T05:31:23.059Z,100928.25
2022-10-25T05:33:52.159Z,100930.91
2022-10-25T05:36:19.291Z,100925.44
2022-10-25T05:38:46.397Z,100935.41
2022-10-25T05:41:14.787Z,100936.97
2022-10-25T05:43:42.502Z,100937.78
2022-10-25T05:46:16.134Z,100929.59
2022-10-25T05:48:48.381Z,100939.19
2022-10-25T05:51:39.052Z,100943.94
2022-10-25T05:54:16.496Z,100949.75
2022-10-25T05:56:43.708Z,100950.00
2022-10-25T05:59:12.994Z,100954.06
2022-10-25T06:01:44.995Z,100954.88
2022-10-25T06:04:12.709Z,100954.88
2022-10-25T06:06:40.717Z,100952.97
2022-10-25T06:09:07.953Z,100954.63
2022-10-25T06:11:34.752Z,100958.44
2022-10-25T06:14:01.360Z,100952.50
2022-10-25T06:16:27.968Z,100961.78
2022-10-25T06:18:54.905Z,100963.44
2022-10-25T06:21:24.862Z,100966.44
2022-10-25T06:23:51.923Z,100971.91
2022-10-25T06:26:21.550Z,100967.25
2022-10-25T06:28:48.623Z,100975.69
2022-10-25T06:31:18.129Z,100968.06
2022-10-25T06:33:45.285Z,100978.78
2022-10-25T06:36:15.511Z,100973.78
2022-10-25T06:38:42.465Z,100985.81
2022-10-25T06:41:14.759Z,100989.13
2022-10-25T06:43:41.512Z,100997.09
2022-10-25T06:46:10.375Z,100995.75
2022-10-25T06:48:37.415Z,100993.88
2022-10-25T06:51:06.603Z,100998.25
2022-10-25T06:53:33.232Z,100996.91
2022-10-25T06:56:05.973Z,100998.34
2022-10-25T06:58:34.689Z,101008.03
2022-10-25T07:01:06.569Z,101009.38
2022-10-25T07:03:36.310Z,101012.34
2022-10-25T07:06:06.309Z,101014.03
2022-10-25T07:08:34.460Z,101017.34
2022-10-25T07:11:01.038Z,101027.81
2022-10-25T07:13:27.789Z,101033.09
2022-10-25T07:16:01.340Z,101022.59
2022-10-25T07:18:27.848Z,101031.78
2022-10-25T07:21:02.469Z,101023.66
2022-10-25T07:23:29.885Z,101034.59
2022-10-25T07:25:57.538Z,101041.75
2022-10-25T07:28:24.439Z,101034.94
2022-10-25T07:30:51.820Z,101035.28
2022-10-25T07:33:20.505Z,101043.50
2022-10-25T07:36:06.140Z,101040.66
2022-10-25T07:38:37.010Z,101046.66
2022-10-25T07:41:04.113Z,101046.41
2022-10-25T07:43:30.699Z,101056.19
2022-10-25T07:45:57.390Z,101053.53
2022-10-25T07:48:24.107Z,101054.38
2022-10-25T07:50:50.756Z,101066.72
2022-10-25T07:53:17.579Z,101066.38
2022-10-25T07:55:49.379Z,101063.66
2022-10-25T07:58:15.879Z,101074.94
2022-10-25T08:00:42.479Z,101076.69
2022-10-25T08:03:09.033Z,101075.19
2022-10-25T08:05:35.600Z,101084.56
2022-10-25T08:08:02.147Z,101086.97
2022-10-25T08:10:28.718Z,101081.00
2022-10-25T08:12:56.471Z,101084.56
2022-10-25T08:15:23.441Z,101080.50
2022-10-25T08:18:00.716Z,101089.66
2022-10-25T08:20:49.187Z,101090.88
2022-10-25T08:23:15.048Z,101097.50
2022-10-25T08:25:41.793Z,101095.84
2022-10-25T08:28:08.413Z,101097.03
2022-10-25T08:30:35.194Z,101096.84
2022-10-25T08:33:01.863Z,101098.50
2022-10-25T08:35:28.541Z,101114.19
2022-10-25T08:37:55.042Z,101106.28
2022-10-25T08:40:26.209Z,101102.00
2022-10-25T08:43:04.832Z,101108.63
2022-10-25T08:45:43.771Z,101109.81
2022-10-25T08:48:17.631Z,101114.44
2022-10-25T08:50:55.868Z,101119.44
2022-10-25T08:53:27.418Z,101121.72
2022-10-25T08:56:11.614Z,101124.53
2022-10-25T08:58:54.939Z,101130.09
2022-10-25T09:01:30.186Z,101127.41
2022-10-25T09:03:59.242Z,101134.56
2022-10-25T09:06:38.214Z,101143.94
2022-10-25T09:09:19.850Z,101145.63
2022-10-25T09:11:57.241Z,101152.25
2022-10-25T09:14:53.945Z,101146.56
2022-10-25T09:17:22.653Z,101154.66
2022-10-25T09:20:06.519Z,101159.34
2022-10-25T09:22:46.847Z,101156.84
2022-10-25T09:25:41.161Z,101162.84
2022-10-25T09:28:44.267Z,101156.78
2022-10-25T09:31:19.337Z,101151.09
2022-10-25T09:33:47.632Z,101163.47
2022-10-25T09:36:15.125Z,101169.03
2022-10-25T09:38:52.907Z,101162.97
2022-10-25T09:41:38.709Z,101168.03
2022-10-25T09:44:19.902Z,101172.44
2022-10-25T09:46:56.960Z,101178.03
2022-10-25T09:49:27.915Z,101166.59
2022-10-25T09:52:05.102Z,101173.44
2022-10-25T09:54:39.815Z,101173.50
2022-10-25T09:57:06.371Z,101187.34
2022-10-25T09:59:33.616Z,101184.59
2022-10-25T10:02:00.440Z,101188.22
2022-10-25T10:04:36.536Z,101184.31
2022-10-25T10:07:12.156Z,101191.75
2022-10-25T10:09:45.740Z,101192.66
2022-10-25T10:12:22.514Z,101197.44
2022-10-25T10:14:58.808Z,101202.84
2022-10-25T10:17:29.621Z,101210.09
2022-10-25T10:20:14.596Z,101202.13
2022-10-25T10:25:25.505Z,101215.59
2022-10-25T10:27:55.919Z,101215.22
2022-10-25T10:30:37.537Z,101207.84
2022-10-25T10:33:05.112Z,101205.53
2022-10-25T10:35:34.277Z,101225.31
2022-10-25T10:38:22.711Z,101217.91
2022-10-25T10:40:56.102Z,101215.22
2022-10-25T10:43:34.278Z,101219.88
2022-10-25T10:46:09.844Z,101220.81
2022-10-25T10:48:42.917Z,101231.38
2022-10-25T10:51:31.607Z,101221.56
2022-10-25T10:54:32.694Z,101217.84
2022-10-25T10:57:04.943Z,101228.44
2022-10-25T10:59:45.403Z,101233.16
2022-10-25T11:02:21.687Z,101229.13
2022-10-25T11:04:53.473Z,101223.44
2022-10-25T11:07:34.815Z,101234.81
2022-10-25T11:10:16.646Z,101239.50
2022-10-25T11:12:44.210Z,101239.28
2022-10-25T11:15:14.513Z,101250.22
2022-10-25T11:17:53.821Z,101250.19
2022-10-25T11:20:26.173Z,101257.88
2022-10-25T11:23:13.499Z,101263.31
2022-10-25T11:25:54.994Z,101268.88
2022-10-25T11:28:40.080Z,101262.50
2022-10-25T11:31:40.562Z,101264.63
2022-10-25T11:34:38.006Z,101269.31
2022-10-25T11:37:29.686Z,101266.41
2022-10-25T11:40:08.445Z,101268.31
2022-10-25T11:42:53.982Z,101275.19
2022-10-25T11:45:23.549Z,101265.88
2022-10-25T11:48:09.156Z,101272.25
2022-10-25T11:50:50.811Z,101283.28
2022-10-25T11:53:41.967Z,101270.34
2022-10-25T11:56:57.283Z,101274.81
2022-10-25T11:59:38.836Z,101282.75
2022-10-25T12:02:43.529Z,101284.69
2022-10-25T12:05:25.541Z,101269.56
2022-10-25T12:07:57.444Z,101282.28
2022-10-25T12:10:32.575Z,101276.78
2022-10-25T12:13:04.550Z,101282.94
2022-10-25T12:15:43.353Z,101287.31
2022-10-25T12:18:25.364Z,101290.38
2022-10-25T12:20:54.251Z,101292.31
2022-10-25T12:23:25.102Z,101304.38
2022-10-25T12:25:56.776Z,101303.81
2022-10-25T12:28:42.349Z,101299.47
2022-10-25T12:31:19.819Z,101307.16
2022-10-25T12:33:53.604Z,101311.31
2022-10-25T12:36:35.101Z,101307.47
2022-10-25T12:39:06.768Z,101309.03
2022-10-25T12:41:37.609Z,101320.75
2022-10-25T12:44:13.118Z,101317.47
2022-10-25T12:46:48.214Z,101311.06
2022-10-25T12:49:28.789Z,101319.63
2022-10-25T12:52:08.978Z,101313.28
2022-10-25T12:55:06.385Z,101321.59
2022-10-25T12:57:48.248Z,101310.88
2022-10-25T13:00:18.201Z,101313.38
2022-10-25T13:03:16.987Z,101307.69
2022-10-25T13:06:04.546Z,101321.97
2022-10-25T13:08:32.067Z,101322.00
2022-10-25T13:11:05.353Z,101324.78
2022-10-25T13:13:34.549Z,101318.97
2022-10-25T13:16:04.497Z,101324.22
2022-10-25T13:18:34.044Z,101326.97
2022-10-25T13:21:02.456Z,101316.50
2022-10-25T13:23:46.568Z,101327.00
2022-10-25T13:26:18.606Z,101320.44
2022-10-25T13:28:52.972Z,101337.25
2022-10-25T13:31:34.455Z,101330.59
2022-10-25T13:34:12.955Z,101332.50
2022-10-25T13:36:54.072Z,101338.22
2022-10-25T13:39:38.000Z,101334.38
2022-10-25T13:42:18.173Z,101339.09
2022-10-25T13:44:54.805Z,101336.91
2022-10-25T13:47:43.690Z,101343.59
2022-10-25T13:50:29.317Z,101339.72
2022-10-25T13:53:34.302Z,101347.66
2022-10-25T13:56:13.237Z,101347.03
2022-10-25T13:58:42.605Z,101340.16
2022-10-25T14:01:15.074Z,101330.56
2022-10-25T14:03:51.029Z,101329.25
2022-10-25T14:06:36.711Z,101324.78
2022-10-25T14:09:11.687Z,101342.44
2022-10-25T14:12:03.474Z,101334.41
2022-10-25T14:15:00.139Z,101341.00
2022-10-25T14:17:34.725Z,101346.47
2022-10-25T14:20:22.867Z,101345.66
2022-10-25T14:23:18.545Z,101346.53
2022-10-25T14:25:58.029Z,101338.53
2022-10-25T14:28:26.897Z,101341.16
2022-10-25T14:30:55.238Z,101332.81
2022-10-25T14:33:45.808Z,101334.16
2022-10-25T14:36:27.739Z,101334.94
2022-10-25T14:38:58.751Z,101334.13
2022-10-25T14:41:28.283Z,101336.09
2022-10-25T14:43:55.428Z,101345.44
2022-10-25T14:46:30.262Z,101343.94
2022-10-25T14:48:58.616Z,101338.34
2022-10-25T14:51:35.465Z,101349.78
2022-10-25T14:54:05.543Z,101345.09
2022-10-25T14:56:38.766Z,101345.69
2022-10-25T14:59:07.867Z,101343.69
2022-10-25T15:01:34.981Z,101342.72
2022-10-25T15:04:02.188Z,101347.78
2022-10-25T15:06:31.638Z,101347.09
2022-10-25T15:09:37.060Z,101358.03
2022-10-25T15:12:27.106Z,101348.91
2022-10-25T15:14:55.439Z,101341.69
2022-10-25T15:17:22.141Z,101345.19
2022-10-25T15:20:14.970Z,101355.03
2022-10-25T15:22:45.266Z,101353.38
2022-10-25T15:25:33.544Z,101343.41
2022-10-25T15:28:15.503Z,101354.34
2022-10-25T15:30:56.618Z,101348.78
2022-10-25T15:33:30.228Z,101354.19
2022-10-25T15:36:02.591Z,101358.00
2022-10-25T15:38:54.440Z,101353.53
2022-10-25T15:41:18.471Z,101353.19
2022-10-25T15:43:44.977Z,101354.19
2022-10-25T15:46:24.837Z,101351.38
2022-10-25T15:48:51.888Z,101347.50
2022-10-25T15:51:18.693Z,101353.06
2022-10-25T15:53:45.248Z,101359.53
2022-10-25T15:56:15.260Z,101357.06
2022-10-25T15:58:41.870Z,101356.50
2022-10-25T16:01:09.465Z,101355.91
2022-10-25T16:03:36.477Z,101359.97
2022-10-25T16:06:03.280Z,101356.34
2022-10-25T16:08:30.114Z,101363.00
2022-10-25T16:10:58.216Z,101353.69
2022-10-25T16:13:32.947Z,101358.66
2022-10-25T16:16:04.358Z,101360.88
2022-10-25T16:18:31.418Z,101362.88
2022-10-25T16:20:59.217Z,101370.84
2022-10-25T16:23:26.354Z,101368.44
2022-10-25T16:25:54.852Z,101368.19
2022-10-25T16:28:21.486Z,101377.03
2022-10-25T16:30:48.248Z,101376.50
2022-10-25T16:33:15.181Z,101376.50
2022-10-25T16:35:41.700Z,101382.00
2022-10-25T16:40:42.395Z,101377.50
2022-10-25T16:43:12.859Z,101388.75
2022-10-25T16:45:39.523Z,101382.19
2022-10-25T16:48:06.452Z,101387.06
2022-10-25T16:50:33.817Z,101384.84
2022-10-25T16:53:02.524Z,101384.03
2022-10-25T16:55:30.590Z,101389.75
2022-10-25T16:58:00.848Z,101383.69
2022-10-25T17:00:29.034Z,101397.16
2022-10-25T17:02:55.590Z,101396.09
2022-10-25T17:05:24.570Z,101395.25
2022-10-25T17:07:51.298Z,101396.16
2022-10-25T17:10:20.040Z,101399.16
2022-10-25T17:12:49.576Z,101406.88
2022-10-25T17:15:17.167Z,101404.97
2022-10-25T17:17:45.717Z,101407.16
2022-10-25T17:20:15.054Z,101410.97
2022-10-25T17:22:42.069Z,101411.66
2022-10-25T17:25:09.677Z,101416.69
2022-10-25T17:27:39.982Z,101410.59
2022-10-25T17:30:08.744Z,101417.22
2022-10-25T17:32:35.951Z,101422.78
2022-10-25T17:35:02.617Z,101420.03
2022-10-25T17:37:29.146Z,101422.78
2022-10-25T17:39:55.715Z,101416.03
2022-10-25T17:42:22.384Z,101414.88
2022-10-25T17:44:49.355Z,101414.22
2022-10-25T17:47:16.232Z,101420.22
2022-10-25T17:49:42.718Z,101428.78
2022-10-25T17:52:09.845Z,101435.44
2022-10-25T17:54:38.486Z,101432.75
2022-10-25T17:57:05.973Z,101428.19
2022-10-25T17:59:33.576Z,101429.28
2022-10-25T18:02:00.518Z,101432.59
2022-10-25T18:04:27.358Z,101429.00
2022-10-25T18:06:53.965Z,101426.59
2022-10-25T18:09:20.849Z,101433.25
2022-10-25T18:11:47.368Z,101425.00
2022-10-25T18:14:13.918Z,101434.91
2022-10-25T18:16:41.448Z,101429.91
2022-10-25T18:19:13.949Z,101435.84
2022-10-25T18:21:41.295Z,101442.94
2022-10-25T18:24:08.465Z,101428.84
2022-10-25T18:26:35.586Z,101443.94
2022-10-25T18:29:02.388Z,101436.84
2022-10-25T18:31:29.165Z,101441.09
2022-10-25T18:33:56.334Z,101443.50
2022-10-25T18:36:23.529Z,101446.06
2022-10-25T18:38:51.126Z,101448.72
2022-10-25T18:41:20.701Z,101445.56
2022-10-25T18:43:47.855Z,101447.84
2022-10-25T18:46:14.751Z,101445.19
2022-10-25T18:48:41.845Z,101449.16
2022-10-25T18:51:11.433Z,101442.16
2022-10-25T18:53:39.543Z,101450.41
2022-10-25T18:56:16.999Z,101438.72
2022-10-25T18:58:46.986Z,101439.72
2022-10-25T19:01:16.915Z,101444.38
2022-10-25T19:03:44.063Z,101439.97
2022-10-25T19:06:11.037Z,101439.75
2022-10-25T19:08:38.328Z,101440.50
2022-10-25T19:11:07.715Z,101442.06
2022-10-25T19:13:34.420Z,101441.44
2022-10-25T19:16:01.501Z,101442.88
2022-10-25T19:18:29.520Z,101438.97
2022-10-25T19:21:01.143Z,101434.44
2022-10-25T19:23:27.671Z,101435.41
2022-10-25T19:25:54.294Z,101440.28
2022-10-25T19:28:20.934Z,101440.75
2022-10-25T19:30:47.433Z,101442.06
2022-10-25T19:33:14.152Z,101439.00
2022-10-25T19:35:40.634Z,101444.78
2022-10-25T19:38:07.145Z,101438.75
2022-10-25T19:40:33.697Z,101440.75
2022-10-25T19:43:00.260Z,101437.16
2022-10-25T19:45:26.779Z,101444.41
2022-10-25T19:47:57.377Z,101438.31
2022-10-25T19:50:25.102Z,101430.84
2022-10-25T19:52:52.347Z,101433.88
2022-10-25T19:55:19.682Z,101437.56
2022-10-25T19:57:47.082Z,101429.13
2022-10-25T20:00:14.370Z,101442.66
2022-10-25T20:02:41.024Z,101440.16
2022-10-25T20:05:07.986Z,101442.28
2022-10-25T20:07:34.643Z,101439.78
2022-10-25T20:10:01.150Z,101447.84
2022-10-25T20:12:30.463Z,101448.53
2022-10-25T20:14:57.688Z,101447.09
2022-10-25T20:17:24.516Z,101452.38
2022-10-25T20:19:51.033Z,101457.94
2022-10-25T20:22:17.588Z,101457.09
2022-10-25T20:24:44.095Z,101452.09
2022-10-25T20:27:10.579Z,101450.91
2022-10-25T20:29:37.661Z,101447.09
2022-10-25T20:32:04.312Z,101447.16
2022-10-25T20:34:32.327Z,101455.00
2022-10-25T20:36:58.823Z,101453.78
2022-10-25T20:39:25.359Z,101459.72
2022-10-25T20:41:51.845Z,101454.09
2022-10-25T20:44:18.404Z,101462.13
2022-10-25T20:46:44.943Z,101471.53
2022-10-25T20:49:11.647Z,101469.47
2022-10-25T20:51:38.287Z,101471.81
2022-10-25T20:54:09.465Z,101464.09
2022-10-25T20:56:37.350Z,101473.81
2022-10-25T20:59:04.270Z,101473.81
2022-10-25T21:01:30.848Z,101477.81
2022-10-25T21:03:57.403Z,101480.63
2022-10-25T21:06:24.741Z,101482.72
2022-10-25T21:08:51.278Z,101485.06
2022-10-25T21:11:17.809Z,101487.00
2022-10-25T21:13:44.333Z,101481.56
2022-10-25T21:16:13.378Z,101485.94
2022-10-25T21:18:40.695Z,101496.47
2022-10-25T21:21:10.126Z,101492.28
2022-10-25T21:23:37.051Z,101489.22
2022-10-25T21:26:05.969Z,101484.19
2022-10-25T21:28:37.557Z,101489.22
2022-10-25T21:31:06.673Z,101494.03
2022-10-25T21:33:33.674Z,101487.97
2022-10-25T21:36:11.166Z,101495.53
2022-10-25T21:38:38.209Z,101492.59
2022-10-25T21:41:13.271Z,101488.41
2022-10-25T21:43:47.601Z,101488.84
2022-10-25T21:46:15.867Z,101492.38
2022-10-25T21:48:43.834Z,101493.03
2022-10-25T21:51:10.375Z,101492.44
2022-10-25T21:53:36.899Z,101495.19
2022-10-25T21:56:11.660Z,101500.63
2022-10-25T21:58:39.818Z,101491.00
2022-10-25T22:01:08.436Z,101494.31
2022-10-25T22:03:35.142Z,101487.22
2022-10-25T22:06:01.676Z,101490.59
2022-10-25T22:08:28.257Z,101501.06
2022-10-25T22:11:02.615Z,101493.03
2022-10-25T22:13:29.679Z,101490.78
2022-10-25T22:15:57.057Z,101496.06
2022-10-25T22:18:23.661Z,101488.94
2022-10-25T22:21:02.232Z,101494.38
2022-10-25T22:23:30.669Z,101496.50
2022-10-25T22:26:05.378Z,101491.94
2022-10-25T22:28:36.664Z,101504.72
2022-10-25T22:31:14.359Z,101497.00
2022-10-25T22:34:09.441Z,101497.38
2022-10-25T22:36:38.572Z,101498.84
2022-10-25T22:39:06.413Z,101493.38
2022-10-25T22:41:33.537Z,101496.53
2022-10-25T22:44:00.880Z,101491.31
2022-10-25T22:46:30.134Z,101496.16
2022-10-25T22:48:58.565Z,101494.03
2022-10-25T22:51:27.605Z,101494.25
2022-10-25T22:53:54.199Z,101497.00
2022-10-25T22:56:26.122Z,101493.44
2022-10-25T22:59:01.109Z,101500.38
2022-10-25T23:01:29.873Z,101492.41
2022-10-25T23:03:57.992Z,101497.88
2022-10-25T23:06:30.448Z,101500.81
2022-10-25T23:08:59.143Z,101492.84
2022-10-25T23:11:28.616Z,101501.28
2022-10-25T23:13:57.111Z,101494.13
2022-10-25T23:16:24.179Z,101498.72
2022-10-25T23:18:50.831Z,101497.28
2022-10-25T23:21:19.395Z,101497.28
2022-10-25T23:23:46.783Z,101493.34
2022-10-25T23:26:33.621Z,101502.56
2022-10-25T23:29:01.101Z,101502.56
2022-10-25T23:31:28.550Z,101493.56
2022-10-25T23:33:56.954Z,101497.09
2022-10-25T23:36:26.507Z,101490.41
2022-10-25T23:38:54.841Z,101489.19
2022-10-25T23:41:22.225Z,101490.91
2022-10-25T23:43:48.893Z,101489.66
2022-10-25T23:46:15.450Z,101491.56
2022-10-25T23:48:42.162Z,101499.09
2022-10-25T23:51:11.527Z,101496.38
2022-10-25T23:53:38.558Z,101496.19
2022-10-25T23:56:07.485Z,101499.97
2022-10-25T23:58:34.425Z,101502.28
